sensor_id;sensor_type;location;lat;lon;timestamp;P1;durP1;ratioP1;P2;durP2;ratioP2
12836;SDS011;6485;51.472;5.268;2022-09-12T15:00:52;4.77;;;2.80;;
12836;SDS011;6485;51.472;5.268;2022-09-12T15:03:30;3.13;;;2.83;;
12836;SDS011;6485;51.472;5.268;2022-09-12T15:06:01;5.00;;;3.10;;
12836;SDS011;6485;51.472;5.268;2022-09-12T15:08:34;3.90;;;2.80;;
12836;SDS011;6485;51.472;5.268;2022-09-12T15:11:04;4.00;;;2.67;;
12836;SDS011;6485;51.472;5.268;2022-09-12T15:13:38;2.53;;;2.33;;
12836;SDS011;6485;51.472;5.268;2022-09-12T15:16:10;5.87;;;2.80;;
12836;SDS011;6485;51.472;5.268;2022-09-12T15:18:40;2.50;;;2.30;;
12836;SDS011;6485;51.472;5.268;2022-09-12T15:21:12;2.60;;;2.20;;
12836;SDS011;6485;51.472;5.268;2022-09-12T15:23:44;2.73;;;2.30;;
12836;SDS011;6485;51.472;5.268;2022-09-12T15:26:15;5.80;;;2.60;;
12836;SDS011;6485;51.472;5.268;2022-09-12T15:28:44;2.60;;;2.40;;
12836;SDS011;6485;51.472;5.268;2022-09-12T15:31:17;3.10;;;2.80;;
12836;SDS011;6485;51.472;5.268;2022-09-12T15:33:51;2.97;;;2.70;;
12836;SDS011;6485;51.472;5.268;2022-09-12T15:36:21;6.20;;;2.93;;
12836;SDS011;6485;51.472;5.268;2022-09-12T15:38:51;3.77;;;2.47;;
12836;SDS011;6485;51.472;5.268;2022-09-12T15:41:20;5.23;;;2.80;;
12836;SDS011;6485;51.472;5.268;2022-09-12T15:43:51;4.20;;;2.90;;
12836;SDS011;6485;51.472;5.268;2022-09-12T15:46:21;5.53;;;2.80;;
12836;SDS011;6485;51.472;5.268;2022-09-12T15:48:50;5.37;;;3.37;;
12836;SDS011;6485;51.472;5.268;2022-09-12T15:51:20;3.57;;;2.80;;
12836;SDS011;6485;51.472;5.268;2022-09-12T15:53:49;3.13;;;2.70;;
12836;SDS011;6485;51.472;5.268;2022-09-12T15:56:19;3.83;;;2.60;;
12836;SDS011;6485;51.472;5.268;2022-09-12T15:58:49;4.37;;;2.87;;
12836;SDS011;6485;51.472;5.268;2022-09-12T16:01:27;4.00;;;2.60;;
12836;SDS011;6485;51.472;5.268;2022-09-12T16:03:56;6.00;;;3.00;;
12836;SDS011;6485;51.472;5.268;2022-09-12T16:06:25;4.73;;;3.00;;
12836;SDS011;6485;51.472;5.268;2022-09-12T16:09:01;5.13;;;2.70;;
12836;SDS011;6485;51.472;5.268;2022-09-12T16:11:30;4.57;;;2.70;;
12836;SDS011;6485;51.472;5.268;2022-09-12T16:13:59;5.63;;;2.80;;
12836;SDS011;6485;51.472;5.268;2022-09-12T16:16:30;3.93;;;2.70;;
12836;SDS011;6485;51.472;5.268;2022-09-12T16:18:59;3.77;;;2.50;;
12836;SDS011;6485;51.472;5.268;2022-09-12T16:21:28;4.17;;;2.80;;
12836;SDS011;6485;51.472;5.268;2022-09-12T16:23:57;4.93;;;2.47;;
12836;SDS011;6485;51.472;5.268;2022-09-12T16:26:30;5.87;;;2.73;;
12836;SDS011;6485;51.472;5.268;2022-09-12T16:29:02;2.70;;;2.50;;
12836;SDS011;6485;51.472;5.268;2022-09-12T16:31:32;3.23;;;2.17;;
12836;SDS011;6485;51.472;5.268;2022-09-12T16:34:04;3.20;;;2.63;;
12836;SDS011;6485;51.472;5.268;2022-09-12T16:36:33;2.30;;;2.10;;
12836;SDS011;6485;51.472;5.268;2022-09-12T16:39:01;2.53;;;2.33;;
12836;SDS011;6485;51.472;5.268;2022-09-12T16:41:31;2.47;;;2.27;;
12836;SDS011;6485;51.472;5.268;2022-09-12T16:43:59;2.50;;;2.30;;
12836;SDS011;6485;51.472;5.268;2022-09-12T16:46:28;3.37;;;2.53;;
12836;SDS011;6485;51.472;5.268;2022-09-12T16:48:58;2.80;;;2.30;;
12836;SDS011;6485;51.472;5.268;2022-09-12T16:51:29;3.53;;;2.30;;
12836;SDS011;6485;51.472;5.268;2022-09-12T16:54:02;2.70;;;2.27;;
12836;SDS011;6485;51.472;5.268;2022-09-12T16:56:32;2.50;;;2.30;;
12836;SDS011;6485;51.472;5.268;2022-09-12T16:59:00;2.83;;;2.50;;
12836;SDS011;6485;51.472;5.268;2022-09-12T17:01:31;2.53;;;2.33;;
12836;SDS011;6485;51.472;5.268;2022-09-12T17:04:05;3.43;;;2.70;;
12836;SDS011;6485;51.472;5.268;2022-09-12T17:06:34;2.60;;;2.40;;
12836;SDS011;6485;51.472;5.268;2022-09-12T17:09:03;3.90;;;2.40;;
12836;SDS011;6485;51.472;5.268;2022-09-12T17:11:32;5.63;;;2.73;;
12836;SDS011;6485;51.472;5.268;2022-09-12T17:14:04;4.63;;;2.63;;
12836;SDS011;6485;51.472;5.268;2022-09-12T17:16:35;2.97;;;2.50;;
12836;SDS011;6485;51.472;5.268;2022-09-12T17:19:06;3.50;;;2.53;;
12836;SDS011;6485;51.472;5.268;2022-09-12T17:21:35;2.57;;;2.37;;
12836;SDS011;6485;51.472;5.268;2022-09-12T17:24:03;2.90;;;2.60;;
12836;SDS011;6485;51.472;5.268;2022-09-12T17:26:32;2.97;;;2.50;;
12836;SDS011;6485;51.472;5.268;2022-09-12T17:29:00;3.60;;;2.70;;
12836;SDS011;6485;51.472;5.268;2022-09-12T17:31:29;4.37;;;2.60;;
12836;SDS011;6485;51.472;5.268;2022-09-12T17:33:58;3.30;;;2.50;;
12836;SDS011;6485;51.472;5.268;2022-09-12T17:36:29;2.60;;;2.40;;
12836;SDS011;6485;51.472;5.268;2022-09-12T17:38:58;3.13;;;2.67;;
12836;SDS011;6485;51.472;5.268;2022-09-12T17:41:28;3.30;;;2.50;;
12836;SDS011;6485;51.472;5.268;2022-09-12T17:43:59;2.60;;;2.40;;
12836;SDS011;6485;51.472;5.268;2022-09-12T17:46:29;3.10;;;2.80;;
12836;SDS011;6485;51.472;5.268;2022-09-12T17:49:01;4.60;;;2.87;;
12836;SDS011;6485;51.472;5.268;2022-09-12T17:51:32;3.33;;;2.73;;
12836;SDS011;6485;51.472;5.268;2022-09-12T17:54:01;5.03;;;2.70;;
12836;SDS011;6485;51.472;5.268;2022-09-12T17:56:32;6.63;;;2.70;;
12836;SDS011;6485;51.472;5.268;2022-09-12T17:59:03;4.30;;;3.57;;
12836;SDS011;6485;51.472;5.268;2022-09-12T18:01:32;3.57;;;2.70;;
12836;SDS011;6485;51.472;5.268;2022-09-12T18:04:18;3.80;;;3.37;;
12836;SDS011;6485;51.472;5.268;2022-09-12T18:06:48;4.63;;;2.97;;
12836;SDS011;6485;51.472;5.268;2022-09-12T18:09:19;3.53;;;3.03;;
12836;SDS011;6485;51.472;5.268;2022-09-12T18:11:50;4.67;;;3.50;;
12836;SDS011;6485;51.472;5.268;2022-09-12T18:14:19;6.40;;;2.90;;
12836;SDS011;6485;51.472;5.268;2022-09-12T18:16:48;4.07;;;3.03;;
12836;SDS011;6485;51.472;5.268;2022-09-12T18:19:17;6.60;;;4.10;;
12836;SDS011;6485;51.472;5.268;2022-09-12T18:21:46;4.50;;;3.43;;
12836;SDS011;6485;51.472;5.268;2022-09-12T18:24:16;8.03;;;3.70;;
12836;SDS011;6485;51.472;5.268;2022-09-12T18:26:45;4.30;;;3.70;;
12836;SDS011;6485;51.472;5.268;2022-09-12T18:29:16;4.47;;;3.47;;
12836;SDS011;6485;51.472;5.268;2022-09-12T18:31:45;4.03;;;3.50;;
12836;SDS011;6485;51.472;5.268;2022-09-12T18:34:14;5.20;;;3.60;;
12836;SDS011;6485;51.472;5.268;2022-09-12T18:36:44;8.33;;;3.60;;
12836;SDS011;6485;51.472;5.268;2022-09-12T18:39:15;6.60;;;3.50;;
12836;SDS011;6485;51.472;5.268;2022-09-12T18:41:50;10.53;;;3.40;;
12836;SDS011;6485;51.472;5.268;2022-09-12T18:44:19;5.00;;;3.57;;
12836;SDS011;6485;51.472;5.268;2022-09-12T18:46:48;7.53;;;3.60;;
12836;SDS011;6485;51.472;5.268;2022-09-12T18:49:16;6.03;;;3.47;;
12836;SDS011;6485;51.472;5.268;2022-09-12T18:51:45;7.87;;;3.63;;
12836;SDS011;6485;51.472;5.268;2022-09-12T18:54:15;5.60;;;3.77;;
12836;SDS011;6485;51.472;5.268;2022-09-12T18:56:45;6.47;;;4.00;;
12836;SDS011;6485;51.472;5.268;2022-09-12T18:59:13;6.77;;;4.00;;
12836;SDS011;6485;51.472;5.268;2022-09-12T19:01:42;4.37;;;3.93;;
12836;SDS011;6485;51.472;5.268;2022-09-12T19:04:11;7.33;;;4.10;;
12836;SDS011;6485;51.472;5.268;2022-09-12T19:06:42;4.40;;;3.97;;
12836;SDS011;6485;51.472;5.268;2022-09-12T19:09:13;10.90;;;4.37;;
12836;SDS011;6485;51.472;5.268;2022-09-12T19:11:46;5.20;;;4.00;;
12836;SDS011;6485;51.472;5.268;2022-09-12T19:14:19;6.77;;;3.90;;
12836;SDS011;6485;51.472;5.268;2022-09-12T19:16:49;7.00;;;4.70;;
12836;SDS011;6485;51.472;5.268;2022-09-12T19:19:17;9.23;;;4.20;;
12836;SDS011;6485;51.472;5.268;2022-09-12T19:21:46;4.77;;;4.27;;
12836;SDS011;6485;51.472;5.268;2022-09-12T19:24:16;5.30;;;4.50;;
12836;SDS011;6485;51.472;5.268;2022-09-12T19:26:47;12.50;;;4.70;;
12836;SDS011;6485;51.472;5.268;2022-09-12T19:29:17;4.60;;;4.17;;
12836;SDS011;6485;51.472;5.268;2022-09-12T19:31:46;5.23;;;4.07;;
12836;SDS011;6485;51.472;5.268;2022-09-12T19:34:14;6.10;;;4.27;;
12836;SDS011;6485;51.472;5.268;2022-09-12T19:36:42;7.60;;;4.53;;
12836;SDS011;6485;51.472;5.268;2022-09-12T19:39:12;5.27;;;3.97;;
12836;SDS011;6485;51.472;5.268;2022-09-12T19:41:43;6.07;;;4.00;;
12836;SDS011;6485;51.472;5.268;2022-09-12T19:44:13;5.70;;;4.10;;
12836;SDS011;6485;51.472;5.268;2022-09-12T19:46:44;5.10;;;4.03;;
12836;SDS011;6485;51.472;5.268;2022-09-12T19:49:13;5.97;;;4.23;;
12836;SDS011;6485;51.472;5.268;2022-09-12T19:51:41;9.73;;;4.13;;
12836;SDS011;6485;51.472;5.268;2022-09-12T19:54:10;5.97;;;4.30;;
12836;SDS011;6485;51.472;5.268;2022-09-12T19:56:38;5.03;;;3.93;;
12836;SDS011;6485;51.472;5.268;2022-09-12T19:59:08;6.67;;;4.30;;
12836;SDS011;6485;51.472;5.268;2022-09-12T20:01:37;7.17;;;4.33;;
12836;SDS011;6485;51.472;5.268;2022-09-12T20:04:06;4.47;;;3.87;;
12836;SDS011;6485;51.472;5.268;2022-09-12T20:06:35;5.13;;;4.27;;
12836;SDS011;6485;51.472;5.268;2022-09-12T20:09:04;6.70;;;4.30;;
12836;SDS011;6485;51.472;5.268;2022-09-12T20:11:33;8.40;;;4.23;;
12836;SDS011;6485;51.472;5.268;2022-09-12T20:14:02;7.47;;;5.53;;
12836;SDS011;6485;51.472;5.268;2022-09-12T20:16:33;7.43;;;4.00;;
12836;SDS011;6485;51.472;5.268;2022-09-12T20:19:03;8.40;;;4.20;;
12836;SDS011;6485;51.472;5.268;2022-09-12T20:21:35;6.93;;;4.70;;
12836;SDS011;6485;51.472;5.268;2022-09-12T20:24:06;7.67;;;4.67;;
12836;SDS011;6485;51.472;5.268;2022-09-12T20:26:37;5.27;;;4.33;;
12836;SDS011;6485;51.472;5.268;2022-09-12T20:29:06;6.40;;;5.30;;
12836;SDS011;6485;51.472;5.268;2022-09-12T20:31:38;7.90;;;5.27;;
12836;SDS011;6485;51.472;5.268;2022-09-12T20:34:12;9.47;;;5.17;;
12836;SDS011;6485;51.472;5.268;2022-09-12T20:36:42;12.43;;;4.93;;
12836;SDS011;6485;51.472;5.268;2022-09-12T20:39:12;16.30;;;5.10;;
12836;SDS011;6485;51.472;5.268;2022-09-12T20:41:43;9.37;;;5.47;;
12836;SDS011;6485;51.472;5.268;2022-09-12T20:44:15;6.73;;;5.27;;
12836;SDS011;6485;51.472;5.268;2022-09-12T20:46:46;6.50;;;5.13;;
12836;SDS011;6485;51.472;5.268;2022-09-12T20:49:15;8.10;;;5.33;;
12836;SDS011;6485;51.472;5.268;2022-09-12T20:51:46;8.13;;;5.10;;
12836;SDS011;6485;51.472;5.268;2022-09-12T20:54:15;8.87;;;4.83;;
12836;SDS011;6485;51.472;5.268;2022-09-12T20:56:44;7.47;;;5.57;;
12836;SDS011;6485;51.472;5.268;2022-09-12T20:59:13;6.67;;;5.20;;
12836;SDS011;6485;51.472;5.268;2022-09-12T21:01:44;7.57;;;4.97;;
12836;SDS011;6485;51.472;5.268;2022-09-12T21:04:16;8.07;;;4.73;;
12836;SDS011;6485;51.472;5.268;2022-09-12T21:06:49;6.60;;;4.67;;
12836;SDS011;6485;51.472;5.268;2022-09-12T23:01:15;7.77;;;5.70;;
12836;SDS011;6485;51.472;5.268;2022-09-12T23:03:43;9.87;;;5.57;;
12836;SDS011;6485;51.472;5.268;2022-09-12T23:06:11;8.10;;;5.90;;
12836;SDS011;6485;51.472;5.268;2022-09-12T23:08:40;11.17;;;6.00;;
12836;SDS011;6485;51.472;5.268;2022-09-12T23:11:08;14.23;;;6.00;;
12836;SDS011;6485;51.472;5.268;2022-09-12T23:13:40;8.20;;;5.50;;
12836;SDS011;6485;51.472;5.268;2022-09-12T23:16:12;9.73;;;5.53;;
12836;SDS011;6485;51.472;5.268;2022-09-12T23:18:43;9.17;;;6.20;;
12836;SDS011;6485;51.472;5.268;2022-09-12T23:21:12;7.67;;;5.73;;
12836;SDS011;6485;51.472;5.268;2022-09-12T23:23:41;7.60;;;5.70;;
12836;SDS011;6485;51.472;5.268;2022-09-12T23:26:10;9.03;;;6.20;;
12836;SDS011;6485;51.472;5.268;2022-09-12T23:28:41;11.17;;;6.80;;
12836;SDS011;6485;51.472;5.268;2022-09-12T23:31:15;11.07;;;6.47;;
12836;SDS011;6485;51.472;5.268;2022-09-12T23:33:44;10.03;;;6.90;;
12836;SDS011;6485;51.472;5.268;2022-09-12T23:36:12;11.53;;;6.83;;
12836;SDS011;6485;51.472;5.268;2022-09-12T23:38:41;11.70;;;7.40;;
12836;SDS011;6485;51.472;5.268;2022-09-12T23:41:11;10.33;;;7.33;;
12836;SDS011;6485;51.472;5.268;2022-09-12T23:43:41;11.77;;;7.37;;
12836;SDS011;6485;51.472;5.268;2022-09-12T23:46:10;8.90;;;7.07;;
12836;SDS011;6485;51.472;5.268;2022-09-12T23:48:41;10.50;;;7.20;;
12836;SDS011;6485;51.472;5.268;2022-09-12T23:51:10;11.33;;;7.20;;
12836;SDS011;6485;51.472;5.268;2022-09-12T23:53:39;10.50;;;7.33;;
12836;SDS011;6485;51.472;5.268;2022-09-12T23:56:08;9.33;;;7.10;;
12836;SDS011;6485;51.472;5.268;2022-09-12T23:58:36;10.50;;;7.03;;
